sensor_id;sensor_type;location;lat;lon;timestamp;pressure;altitude;pressure_sealevel;temperature;humidity
64610;BME280;51019;46.090;6.350;2023-05-23T00:00:03;96483.38;;;13.35;100.00
64610;BME280;51019;46.090;6.350;2023-05-23T00:02:32;96473.34;;;13.38;100.00
64610;BME280;51019;46.090;6.350;2023-05-23T00:05:01;96475.53;;;13.51;100.00
64610;BME280;51019;46.090;6.350;2023-05-23T00:07:29;96476.13;;;13.29;100.00
64610;BME280;51019;46.090;6.350;2023-05-23T00:09:57;96470.38;;;13.33;100.00
64610;BME280;51019;46.090;6.350;2023-05-23T00:12:24;96470.38;;;13.33;100.00
64610;BME280;51019;46.090;6.350;2023-05-23T00:14:51;96470.56;;;13.40;100.00
64610;BME280;51019;46.090;6.350;2023-05-23T00:17:20;96455.00;;;13.13;100.00
64610;BME280;51019;46.090;6.350;2023-05-23T00:19:49;96467.13;;;13.56;100.00
64610;BME280;51019;46.090;6.350;2023-05-23T00:22:19;96483.13;;;13.62;100.00
64610;BME280;51019;46.090;6.350;2023-05-23T00:24:46;96490.50;;;13.42;100.00
64610;BME280;51019;46.090;6.350;2023-05-23T00:27:15;96479.13;;;13.42;100.00
64610;BME280;51019;46.090;6.350;2023-05-23T00:29:42;96484.03;;;13.37;100.00
64610;BME280;51019;46.090;6.350;2023-05-23T00:32:10;96489.59;;;13.26;100.00
64610;BME280;51019;46.090;6.350;2023-05-23T00:34:37;96486.47;;;12.88;100.00
64610;BME280;51019;46.090;6.350;2023-05-23T00:37:05;96483.84;;;12.88;100.00
64610;BME280;51019;46.090;6.350;2023-05-23T00:39:34;96492.41;;;12.90;100.00
64610;BME280;51019;46.090;6.350;2023-05-23T00:42:03;96483.34;;;12.85;100.00
64610;BME280;51019;46.090;6.350;2023-05-23T00:44:31;96491.25;;;12.85;100.00
64610;BME280;51019;46.090;6.350;2023-05-23T00:46:59;96495.28;;;12.71;100.00
64610;BME280;51019;46.090;6.350;2023-05-23T00:49:27;96475.06;;;12.71;100.00
64610;BME280;51019;46.090;6.350;2023-05-23T00:51:56;96483.53;;;12.91;100.00
64610;BME280;51019;46.090;6.350;2023-05-23T00:54:28;96492.38;;;12.82;100.00
64610;BME280;51019;46.090;6.350;2023-05-23T00:56:59;96476.56;;;12.74;100.00
64610;BME280;51019;46.090;6.350;2023-05-23T00:59:26;96488.72;;;12.75;100.00
64610;BME280;51019;46.090;6.350;2023-05-23T01:01:55;96490.00;;;12.71;100.00
64610;BME280;51019;46.090;6.350;2023-05-23T01:04:25;96481.97;;;12.72;100.00
64610;BME280;51019;46.090;6.350;2023-05-23T01:06:53;96484.47;;;12.82;100.00
64610;BME280;51019;46.090;6.350;2023-05-23T01:09:21;96485.81;;;12.86;100.00
64610;BME280;51019;46.090;6.350;2023-05-23T01:11:56;96481.44;;;12.69;100.00
64610;BME280;51019;46.090;6.350;2023-05-23T01:14:38;96486.00;;;12.59;100.00
64610;BME280;51019;46.090;6.350;2023-05-23T01:17:14;96468.16;;;12.45;100.00
64610;BME280;51019;46.090;6.350;2023-05-23T01:19:58;96490.06;;;12.53;100.00
64610;BME280;51019;46.090;6.350;2023-05-23T01:22:40;96484.81;;;12.27;100.00
64610;BME280;51019;46.090;6.350;2023-05-23T01:25:23;96484.34;;;12.32;100.00
64610;BME280;51019;46.090;6.350;2023-05-23T01:27:59;96485.00;;;12.52;100.00
64610;BME280;51019;46.090;6.350;2023-05-23T01:30:31;96481.59;;;12.42;100.00
64610;BME280;51019;46.090;6.350;2023-05-23T01:33:02;96474.97;;;12.55;100.00
64610;BME280;51019;46.090;6.350;2023-05-23T01:35:31;96468.72;;;12.56;100.00
64610;BME280;51019;46.090;6.350;2023-05-23T01:37:59;96460.91;;;12.39;100.00
64610;BME280;51019;46.090;6.350;2023-05-23T01:40:27;96475.25;;;12.18;100.00
64610;BME280;51019;46.090;6.350;2023-05-23T01:42:57;96472.00;;;12.24;100.00
64610;BME280;51019;46.090;6.350;2023-05-23T01:45:25;96473.97;;;12.30;100.00
64610;BME280;51019;46.090;6.350;2023-05-23T01:47:54;96471.34;;;12.56;100.00
64610;BME280;51019;46.090;6.350;2023-05-23T01:50:22;96479.50;;;12.19;100.00
64610;BME280;51019;46.090;6.350;2023-05-23T01:52:50;96366.09;;;11.37;100.00
64610;BME280;51019;46.090;6.350;2023-05-23T01:55:19;96471.88;;;12.08;100.00
64610;BME280;51019;46.090;6.350;2023-05-23T01:57:49;96466.34;;;12.19;100.00
64610;BME280;51019;46.090;6.350;2023-05-23T02:00:20;96457.50;;;12.20;100.00
64610;BME280;51019;46.090;6.350;2023-05-23T02:02:47;96470.88;;;12.27;100.00
64610;BME280;51019;46.090;6.350;2023-05-23T02:05:15;96468.31;;;12.43;100.00
64610;BME280;51019;46.090;6.350;2023-05-23T02:07:42;96456.91;;;11.83;100.00
64610;BME280;51019;46.090;6.350;2023-05-23T02:10:10;96475.16;;;12.10;100.00
64610;BME280;51019;46.090;6.350;2023-05-23T02:12:37;96474.91;;;12.21;100.00
64610;BME280;51019;46.090;6.350;2023-05-23T02:15:05;96480.06;;;12.05;100.00
64610;BME280;51019;46.090;6.350;2023-05-23T02:17:35;96482.56;;;11.89;100.00
64610;BME280;51019;46.090;6.350;2023-05-23T02:20:03;96477.81;;;11.75;100.00
64610;BME280;51019;46.090;6.350;2023-05-23T02:22:32;96482.69;;;11.87;100.00
64610;BME280;51019;46.090;6.350;2023-05-23T02:24:59;96489.47;;;11.90;100.00
64610;BME280;51019;46.090;6.350;2023-05-23T02:27:26;96486.16;;;11.88;100.00
64610;BME280;51019;46.090;6.350;2023-05-23T02:29:54;96488.00;;;12.13;100.00
64610;BME280;51019;46.090;6.350;2023-05-23T02:32:22;96479.69;;;12.18;100.00
64610;BME280;51019;46.090;6.350;2023-05-23T02:34:51;96483.81;;;12.03;100.00
64610;BME280;51019;46.090;6.350;2023-05-23T02:37:18;96482.47;;;11.98;100.00
64610;BME280;51019;46.090;6.350;2023-05-23T02:39:47;96473.47;;;12.01;100.00
64610;BME280;51019;46.090;6.350;2023-05-23T02:42:14;96485.78;;;12.00;100.00
64610;BME280;51019;46.090;6.350;2023-05-23T02:44:42;96481.19;;;12.03;100.00
64610;BME280;51019;46.090;6.350;2023-05-23T02:47:09;96482.03;;;12.03;100.00
64610;BME280;51019;46.090;6.350;2023-05-23T02:49:37;96437.41;;;11.50;100.00
64610;BME280;51019;46.090;6.350;2023-05-23T02:52:08;96480.16;;;11.95;100.00
64610;BME280;51019;46.090;6.350;2023-05-23T02:54:36;96474.38;;;11.92;100.00
64610;BME280;51019;46.090;6.350;2023-05-23T02:57:03;96470.25;;;11.89;100.00
64610;BME280;51019;46.090;6.350;2023-05-23T02:59:31;96476.97;;;12.10;100.00
64610;BME280;51019;46.090;6.350;2023-05-23T03:01:59;96411.44;;;11.64;100.00
64610;BME280;51019;46.090;6.350;2023-05-23T03:04:26;96488.72;;;12.23;100.00
64610;BME280;51019;46.090;6.350;2023-05-23T03:06:54;96488.84;;;12.14;100.00
64610;BME280;51019;46.090;6.350;2023-05-23T03:09:25;96490.03;;;12.02;100.00
64610;BME280;51019;46.090;6.350;2023-05-23T03:11:53;96489.38;;;11.99;100.00
64610;BME280;51019;46.090;6.350;2023-05-23T03:14:21;96495.75;;;11.97;100.00
64610;BME280;51019;46.090;6.350;2023-05-23T03:16:48;96491.56;;;11.86;100.00
64610;BME280;51019;46.090;6.350;2023-05-23T03:19:15;96491.50;;;11.96;100.00
64610;BME280;51019;46.090;6.350;2023-05-23T03:21:43;96473.56;;;11.91;100.00
64610;BME280;51019;46.090;6.350;2023-05-23T03:24:10;96494.38;;;12.11;100.00
64610;BME280;51019;46.090;6.350;2023-05-23T03:26:40;96499.09;;;12.25;100.00
64610;BME280;51019;46.090;6.350;2023-05-23T03:29:07;96481.88;;;12.30;100.00
64610;BME280;51019;46.090;6.350;2023-05-23T03:31:36;96490.53;;;12.49;100.00
64610;BME280;51019;46.090;6.350;2023-05-23T03:34:03;96494.03;;;12.57;100.00
64610;BME280;51019;46.090;6.350;2023-05-23T03:36:31;96492.69;;;12.53;100.00
64610;BME280;51019;46.090;6.350;2023-05-23T03:39:00;96496.94;;;12.72;100.00
64610;BME280;51019;46.090;6.350;2023-05-23T03:41:27;96490.16;;;12.44;100.00
64610;BME280;51019;46.090;6.350;2023-05-23T03:43:58;96490.78;;;12.12;100.00
64610;BME280;51019;46.090;6.350;2023-05-23T03:46:26;96495.59;;;12.16;100.00
64610;BME280;51019;46.090;6.350;2023-05-23T03:48:54;96484.56;;;12.39;100.00
64610;BME280;51019;46.090;6.350;2023-05-23T03:51:22;96503.63;;;12.66;100.00
64610;BME280;51019;46.090;6.350;2023-05-23T03:53:49;96488.50;;;12.68;100.00
64610;BME280;51019;46.090;6.350;2023-05-23T03:56:17;96493.44;;;12.63;100.00
64610;BME280;51019;46.090;6.350;2023-05-23T03:58:44;96496.25;;;12.70;100.00
64610;BME280;51019;46.090;6.350;2023-05-23T04:01:13;96497.59;;;12.74;100.00
64610;BME280;51019;46.090;6.350;2023-05-23T04:03:41;96496.94;;;12.72;100.00
64610;BME280;51019;46.090;6.350;2023-05-23T04:06:08;96478.56;;;12.54;100.00
64610;BME280;51019;46.090;6.350;2023-05-23T04:08:36;96473.44;;;12.45;100.00
64610;BME280;51019;46.090;6.350;2023-05-23T04:11:06;96506.13;;;12.76;100.00
64610;BME280;51019;46.090;6.350;2023-05-23T04:13:34;96511.25;;;12.78;100.00
64610;BME280;51019;46.090;6.350;2023-05-23T04:16:02;96512.00;;;12.62;100.00
64610;BME280;51019;46.090;6.350;2023-05-23T04:18:35;96518.53;;;12.58;100.00
64610;BME280;51019;46.090;6.350;2023-05-23T04:21:05;96514.50;;;12.46;100.00
64610;BME280;51019;46.090;6.350;2023-05-23T04:23:41;96458.09;;;12.06;100.00
64610;BME280;51019;46.090;6.350;2023-05-23T04:26:08;96515.38;;;12.54;100.00
64610;BME280;51019;46.090;6.350;2023-05-23T04:28:36;96494.50;;;12.53;100.00
64610;BME280;51019;46.090;6.350;2023-05-23T04:31:04;96488.66;;;12.67;100.00
64610;BME280;51019;46.090;6.350;2023-05-23T04:33:35;96479.34;;;12.72;100.00
64610;BME280;51019;46.090;6.350;2023-05-23T04:36:03;96516.22;;;13.15;100.00
64610;BME280;51019;46.090;6.350;2023-05-23T04:38:33;96524.31;;;12.95;100.00
64610;BME280;51019;46.090;6.350;2023-05-23T04:41:03;96516.59;;;12.94;100.00
64610;BME280;51019;46.090;6.350;2023-05-23T04:43:32;96525.19;;;12.70;100.00
64610;BME280;51019;46.090;6.350;2023-05-23T04:46:02;96528.78;;;12.69;100.00
64610;BME280;51019;46.090;6.350;2023-05-23T04:48:32;96512.09;;;12.52;100.00
64610;BME280;51019;46.090;6.350;2023-05-23T04:51:04;96529.03;;;12.58;100.00
64610;BME280;51019;46.090;6.350;2023-05-23T04:53:36;96529.91;;;12.66;100.00
64610;BME280;51019;46.090;6.350;2023-05-23T04:56:06;96531.41;;;12.69;100.00
64610;BME280;51019;46.090;6.350;2023-05-23T04:58:35;96524.19;;;12.71;100.00
64610;BME280;51019;46.090;6.350;2023-05-23T05:01:05;96538.25;;;12.88;100.00
64610;BME280;51019;46.090;6.350;2023-05-23T05:03:36;96518.19;;;12.87;100.00
64610;BME280;51019;46.090;6.350;2023-05-23T05:06:07;96531.84;;;13.16;100.00
64610;BME280;51019;46.090;6.350;2023-05-23T05:08:38;96527.28;;;13.26;100.00
64610;BME280;51019;46.090;6.350;2023-05-23T05:11:06;96530.97;;;13.50;100.00
64610;BME280;51019;46.090;6.350;2023-05-23T05:13:36;96528.34;;;13.58;100.00
64610;BME280;51019;46.090;6.350;2023-05-23T05:16:04;96490.66;;;13.49;100.00
64610;BME280;51019;46.090;6.350;2023-05-23T05:18:33;96498.88;;;13.46;100.00
64610;BME280;51019;46.090;6.350;2023-05-23T05:21:00;96519.88;;;14.21;100.00
64610;BME280;51019;46.090;6.350;2023-05-23T05:23:31;96518.06;;;14.45;100.00
64610;BME280;51019;46.090;6.350;2023-05-23T05:26:00;96522.75;;;14.90;100.00
64610;BME280;51019;46.090;6.350;2023-05-23T05:28:29;96522.94;;;15.28;100.00
64610;BME280;51019;46.090;6.350;2023-05-23T05:30:57;96513.41;;;15.58;100.00
64610;BME280;51019;46.090;6.350;2023-05-23T05:33:29;96522.59;;;15.93;100.00
64610;BME280;51019;46.090;6.350;2023-05-23T05:36:00;96521.16;;;15.90;100.00
64610;BME280;51019;46.090;6.350;2023-05-23T05:38:32;96515.81;;;15.98;100.00
64610;BME280;51019;46.090;6.350;2023-05-23T05:41:03;96516.50;;;15.92;100.00
64610;BME280;51019;46.090;6.350;2023-05-23T05:43:32;96502.53;;;16.07;100.00
64610;BME280;51019;46.090;6.350;2023-05-23T05:46:00;96515.75;;;16.07;100.00
64610;BME280;51019;46.090;6.350;2023-05-23T05:48:30;96512.69;;;16.18;100.00
64610;BME280;51019;46.090;6.350;2023-05-23T05:50:58;96519.03;;;16.69;100.00
64610;BME280;51019;46.090;6.350;2023-05-23T05:53:32;96513.16;;;16.59;100.00
64610;BME280;51019;46.090;6.350;2023-05-23T05:56:00;96515.81;;;16.59;100.00
64610;BME280;51019;46.090;6.350;2023-05-23T05:58:29;96511.66;;;16.42;100.00
64610;BME280;51019;46.090;6.350;2023-05-23T06:00:59;96521.88;;;16.59;100.00
64610;BME280;51019;46.090;6.350;2023-05-23T06:03:28;96514.78;;;16.60;100.00
64610;BME280;51019;46.090;6.350;2023-05-23T06:05:56;96510.31;;;16.60;100.00
64610;BME280;51019;46.090;6.350;2023-05-23T06:08:25;96510.03;;;16.55;100.00
64610;BME280;51019;46.090;6.350;2023-05-23T06:10:55;96516.50;;;16.53;100.00
64610;BME280;51019;46.090;6.350;2023-05-23T06:13:23;96517.94;;;16.63;100.00
64610;BME280;51019;46.090;6.350;2023-05-23T06:15:52;96517.59;;;16.44;100.00
64610;BME280;51019;46.090;6.350;2023-05-23T06:18:19;96504.03;;;16.47;100.00
64610;BME280;51019;46.090;6.350;2023-05-23T06:20:48;96513.81;;;16.38;100.00
64610;BME280;51019;46.090;6.350;2023-05-23T06:23:16;96519.28;;;16.37;100.00
64610;BME280;51019;46.090;6.350;2023-05-23T06:25:44;96509.44;;;16.30;100.00
64610;BME280;51019;46.090;6.350;2023-05-23T06:28:14;96517.28;;;16.24;100.00
64610;BME280;51019;46.090;6.350;2023-05-23T06:30:41;96504.91;;;16.02;100.00
64610;BME280;51019;46.090;6.350;2023-05-23T06:33:10;96489.91;;;15.94;100.00
64610;BME280;51019;46.090;6.350;2023-05-23T06:35:38;96453.69;;;15.80;100.00
64610;BME280;51019;46.090;6.350;2023-05-23T06:38:07;96517.19;;;16.32;100.00
64610;BME280;51019;46.090;6.350;2023-05-23T06:40:35;96512.91;;;16.31;100.00
64610;BME280;51019;46.090;6.350;2023-05-23T06:43:03;96511.31;;;16.45;100.00
64610;BME280;51019;46.090;6.350;2023-05-23T06:45:33;96515.56;;;16.68;100.00
64610;BME280;51019;46.090;6.350;2023-05-23T06:48:02;96501.72;;;17.11;100.00
64610;BME280;51019;46.090;6.350;2023-05-23T06:50:30;96487.09;;;17.51;100.00
64610;BME280;51019;46.090;6.350;2023-05-23T06:52:58;96503.13;;;17.93;100.00
64610;BME280;51019;46.090;6.350;2023-05-23T06:55:26;96502.66;;;17.68;100.00
64610;BME280;51019;46.090;6.350;2023-05-23T06:57:58;96511.16;;;18.06;100.00
64610;BME280;51019;46.090;6.350;2023-05-23T07:00:29;96496.75;;;18.58;100.00
64610;BME280;51019;46.090;6.350;2023-05-23T07:03:00;96505.94;;;18.34;100.00
64610;BME280;51019;46.090;6.350;2023-05-23T07:05:29;96510.75;;;18.73;100.00
64610;BME280;51019;46.090;6.350;2023-05-23T07:07:58;96496.13;;;18.84;100.00
64610;BME280;51019;46.090;6.350;2023-05-23T07:10:26;96503.28;;;19.18;100.00
64610;BME280;51019;46.090;6.350;2023-05-23T07:12:55;96487.38;;;18.90;100.00
64610;BME280;51019;46.090;6.350;2023-05-23T07:15:23;96499.44;;;18.93;100.00
64610;BME280;51019;46.090;6.350;2023-05-23T07:17:51;96500.19;;;19.14;100.00
64610;BME280;51019;46.090;6.350;2023-05-23T07:20:21;96504.28;;;19.17;100.00
64610;BME280;51019;46.090;6.350;2023-05-23T07:22:49;96498.56;;;19.20;100.00
64610;BME280;51019;46.090;6.350;2023-05-23T07:25:17;96499.47;;;18.99;100.00
64610;BME280;51019;46.090;6.350;2023-05-23T07:27:47;96460.53;;;19.13;100.00
64610;BME280;51019;46.090;6.350;2023-05-23T07:30:17;96493.31;;;18.92;100.00
64610;BME280;51019;46.090;6.350;2023-05-23T07:32:46;96481.41;;;19.64;100.00
64610;BME280;51019;46.090;6.350;2023-05-23T07:35:14;96461.78;;;19.78;100.00
64610;BME280;51019;46.090;6.350;2023-05-23T07:37:44;96489.94;;;20.53;97.73
64610;BME280;51019;46.090;6.350;2023-05-23T07:40:13;96496.25;;;20.85;98.04
64610;BME280;51019;46.090;6.350;2023-05-23T07:42:41;96498.75;;;20.40;100.00
64610;BME280;51019;46.090;6.350;2023-05-23T07:45:09;96490.72;;;20.66;97.70
64610;BME280;51019;46.090;6.350;2023-05-23T07:47:37;96487.28;;;20.40;97.26
64610;BME280;51019;46.090;6.350;2023-05-23T07:50:06;96476.78;;;20.84;98.20
64610;BME280;51019;46.090;6.350;2023-05-23T07:52:35;96486.78;;;21.22;92.52
64610;BME280;51019;46.090;6.350;2023-05-23T07:55:06;96478.97;;;21.14;95.68
64610;BME280;51019;46.090;6.350;2023-05-23T07:57:35;96487.16;;;21.25;93.96
64610;BME280;51019;46.090;6.350;2023-05-23T08:00:04;96480.16;;;21.37;97.43
64610;BME280;51019;46.090;6.350;2023-05-23T08:02:32;96486.53;;;21.17;99.87
64610;BME280;51019;46.090;6.350;2023-05-23T08:05:00;96487.63;;;20.96;97.79
64610;BME280;51019;46.090;6.350;2023-05-23T08:07:29;96460.84;;;20.58;99.12
64610;BME280;51019;46.090;6.350;2023-05-23T08:09:57;96470.34;;;21.31;92.33
64610;BME280;51019;46.090;6.350;2023-05-23T08:12:26;96452.66;;;21.44;92.56
64610;BME280;51019;46.090;6.350;2023-05-23T08:14:54;96475.31;;;21.97;91.25
64610;BME280;51019;46.090;6.350;2023-05-23T08:17:22;96466.19;;;22.18;90.06
64610;BME280;51019;46.090;6.350;2023-05-23T08:19:51;96480.72;;;22.47;89.98
64610;BME280;51019;46.090;6.350;2023-05-23T08:22:18;96479.84;;;22.28;89.27
64610;BME280;51019;46.090;6.350;2023-05-23T08:24:48;96463.44;;;21.93;90.63
64610;BME280;51019;46.090;6.350;2023-05-23T08:27:16;96473.97;;;22.20;90.36
64610;BME280;51019;46.090;6.350;2023-05-23T08:29:47;96481.31;;;22.24;90.51
64610;BME280;51019;46.090;6.350;2023-05-23T08:32:15;96480.13;;;22.20;91.93
64610;BME280;51019;46.090;6.350;2023-05-23T08:34:43;96479.22;;;22.01;91.21
64610;BME280;51019;46.090;6.350;2023-05-23T08:37:10;96476.00;;;22.49;91.61
64610;BME280;51019;46.090;6.350;2023-05-23T08:39:38;96475.66;;;22.89;88.25
64610;BME280;51019;46.090;6.350;2023-05-23T08:42:06;96477.69;;;23.11;91.02
64610;BME280;51019;46.090;6.350;2023-05-23T08:44:35;96467.00;;;22.68;90.93
64610;BME280;51019;46.090;6.350;2023-05-23T08:47:07;96455.25;;;22.69;90.15
64610;BME280;51019;46.090;6.350;2023-05-23T08:49:36;96451.81;;;22.19;92.32
64610;BME280;51019;46.090;6.350;2023-05-23T08:52:06;96445.91;;;22.35;92.49
64610;BME280;51019;46.090;6.350;2023-05-23T08:54:36;96468.38;;;22.53;91.41
64610;BME280;51019;46.090;6.350;2023-05-23T08:57:05;96467.38;;;22.72;88.91
64610;BME280;51019;46.090;6.350;2023-05-23T08:59:35;96464.91;;;22.77;90.80
64610;BME280;51019;46.090;6.350;2023-05-23T09:02:10;96469.81;;;22.98;88.30
64610;BME280;51019;46.090;6.350;2023-05-23T09:04:38;96450.66;;;23.01;90.28
64610;BME280;51019;46.090;6.350;2023-05-23T09:07:11;96451.38;;;23.45;87.35
64610;BME280;51019;46.090;6.350;2023-05-23T09:09:43;96462.44;;;23.48;84.89
64610;BME280;51019;46.090;6.350;2023-05-23T09:12:14;96461.38;;;23.98;84.23
64610;BME280;51019;46.090;6.350;2023-05-23T09:14:41;96459.44;;;24.05;76.16
64610;BME280;51019;46.090;6.350;2023-05-23T09:17:17;96461.84;;;23.65;74.10
64610;BME280;51019;46.090;6.350;2023-05-23T09:19:46;96459.88;;;23.90;72.77
64610;BME280;51019;46.090;6.350;2023-05-23T09:22:14;96442.72;;;23.79;71.02
64610;BME280;51019;46.090;6.350;2023-05-23T09:24:42;96460.88;;;23.59;71.01
64610;BME280;51019;46.090;6.350;2023-05-23T09:27:10;96443.31;;;23.81;69.46
64610;BME280;51019;46.090;6.350;2023-05-23T09:29:38;96450.34;;;24.06;69.43
64610;BME280;51019;46.090;6.350;2023-05-23T09:32:10;96442.91;;;24.38;68.98
64610;BME280;51019;46.090;6.350;2023-05-23T09:34:41;96452.34;;;24.64;66.74
64610;BME280;51019;46.090;6.350;2023-05-23T09:37:11;96442.88;;;23.96;70.34
64610;BME280;51019;46.090;6.350;2023-05-23T09:39:45;96450.06;;;23.36;71.69
64610;BME280;51019;46.090;6.350;2023-05-23T09:42:19;96444.03;;;23.88;69.75
64610;BME280;51019;46.090;6.350;2023-05-23T09:44:46;96435.91;;;24.48;68.80
64610;BME280;51019;46.090;6.350;2023-05-23T09:47:14;96439.16;;;24.85;65.72
64610;BME280;51019;46.090;6.350;2023-05-23T09:49:46;96371.84;;;24.70;65.89
64610;BME280;51019;46.090;6.350;2023-05-23T09:52:15;96425.75;;;25.09;65.39
64610;BME280;51019;46.090;6.350;2023-05-23T09:54:44;96434.34;;;25.22;63.96
64610;BME280;51019;46.090;6.350;2023-05-23T09:57:14;96420.88;;;24.82;63.82
64610;BME280;51019;46.090;6.350;2023-05-23T09:59:51;96424.50;;;24.53;64.45
64610;BME280;51019;46.090;6.350;2023-05-23T10:02:39;96358.56;;;25.27;61.96
64610;BME280;51019;46.090;6.350;2023-05-23T10:05:18;96421.06;;;25.56;60.57
64610;BME280;51019;46.090;6.350;2023-05-23T10:07:54;96422.47;;;25.58;63.06
64610;BME280;51019;46.090;6.350;2023-05-23T10:10:23;96408.63;;;26.07;61.07
64610;BME280;51019;46.090;6.350;2023-05-23T10:12:54;96413.25;;;25.66;59.92
64610;BME280;51019;46.090;6.350;2023-05-23T10:15:26;96419.94;;;26.25;57.24
64610;BME280;51019;46.090;6.350;2023-05-23T10:18:28;96422.53;;;26.20;58.37
64610;BME280;51019;46.090;6.350;2023-05-23T10:21:05;96383.56;;;26.18;56.43
64610;BME280;51019;46.090;6.350;2023-05-23T10:23:34;96400.28;;;26.75;59.08
64610;BME280;51019;46.090;6.350;2023-05-23T10:26:03;96405.78;;;26.47;58.92
64610;BME280;51019;46.090;6.350;2023-05-23T10:28:32;96404.63;;;26.26;57.41
64610;BME280;51019;46.090;6.350;2023-05-23T10:31:02;96402.03;;;26.31;54.50
64610;BME280;51019;46.090;6.350;2023-05-23T10:33:35;96384.78;;;26.60;55.96
64610;BME280;51019;46.090;6.350;2023-05-23T10:36:16;96380.44;;;25.36;57.12
64610;BME280;51019;46.090;6.350;2023-05-23T10:38:50;96392.56;;;27.17;54.59
64610;BME280;51019;46.090;6.350;2023-05-23T10:41:22;96383.22;;;27.25;54.08
64610;BME280;51019;46.090;6.350;2023-05-23T10:43:56;96383.66;;;27.87;53.79
64610;BME280;51019;46.090;6.350;2023-05-23T10:46:49;96395.28;;;28.20;52.35
64610;BME280;51019;46.090;6.350;2023-05-23T10:49:19;96386.75;;;27.74;52.08
64610;BME280;51019;46.090;6.350;2023-05-23T10:51:49;96387.13;;;28.14;51.16
64610;BME280;51019;46.090;6.350;2023-05-23T10:54:19;96374.75;;;27.60;52.47
64610;BME280;51019;46.090;6.350;2023-05-23T10:57:01;96378.19;;;27.33;56.74
64610;BME280;51019;46.090;6.350;2023-05-23T10:59:29;96371.34;;;27.69;53.92
64610;BME280;51019;46.090;6.350;2023-05-23T11:02:00;96366.09;;;27.31;56.40
64610;BME280;51019;46.090;6.350;2023-05-23T11:04:34;96370.66;;;27.08;55.10
64610;BME280;51019;46.090;6.350;2023-05-23T11:07:03;96367.59;;;27.70;52.89
64610;BME280;51019;46.090;6.350;2023-05-23T11:09:31;96372.31;;;27.58;53.28
64610;BME280;51019;46.090;6.350;2023-05-23T11:12:00;96365.44;;;27.99;51.70
64610;BME280;51019;46.090;6.350;2023-05-23T11:14:52;96359.19;;;28.63;52.89
64610;BME280;51019;46.090;6.350;2023-05-23T11:17:30;96351.22;;;27.77;53.72
64610;BME280;51019;46.090;6.350;2023-05-23T11:20:02;96355.28;;;27.53;55.13
64610;BME280;51019;46.090;6.350;2023-05-23T11:22:34;96362.16;;;26.95;56.39
64610;BME280;51019;46.090;6.350;2023-05-23T11:25:06;96355.97;;;27.43;53.77
64610;BME280;51019;46.090;6.350;2023-05-23T11:27:36;96355.75;;;27.71;53.12
64610;BME280;51019;46.090;6.350;2023-05-23T11:30:07;96346.28;;;27.96;52.13
64610;BME280;51019;46.090;6.350;2023-05-23T11:32:35;96362.56;;;28.80;49.41
64610;BME280;51019;46.090;6.350;2023-05-23T11:35:05;96344.97;;;29.30;50.74
64610;BME280;51019;46.090;6.350;2023-05-23T11:37:37;96348.41;;;29.15;49.68
64610;BME280;51019;46.090;6.350;2023-05-23T11:40:25;96347.59;;;29.14;48.66
64610;BME280;51019;46.090;6.350;2023-05-23T11:42:53;96353.44;;;28.86;50.30
64610;BME280;51019;46.090;6.350;2023-05-23T11:45:21;96346.53;;;28.63;50.53
64610;BME280;51019;46.090;6.350;2023-05-23T11:47:51;96316.59;;;29.17;51.50
64610;BME280;51019;46.090;6.350;2023-05-23T11:50:18;96332.00;;;28.69;49.73
64610;BME280;51019;46.090;6.350;2023-05-23T11:52:48;96331.22;;;29.36;50.74
64610;BME280;51019;46.090;6.350;2023-05-23T11:55:18;96327.81;;;28.88;51.06
64610;BME280;51019;46.090;6.350;2023-05-23T11:57:45;96347.09;;;28.65;50.58
64610;BME280;51019;46.090;6.350;2023-05-23T12:00:15;96345.16;;;28.61;51.06
64610;BME280;51019;46.090;6.350;2023-05-23T12:02:44;96334.56;;;28.91;50.84
64610;BME280;51019;46.090;6.350;2023-05-23T12:05:13;96330.97;;;28.75;50.73
64610;BME280;51019;46.090;6.350;2023-05-23T12:07:41;96332.53;;;27.38;53.12
64610;BME280;51019;46.090;6.350;2023-05-23T12:10:11;96329.41;;;28.05;51.23
64610;BME280;51019;46.090;6.350;2023-05-23T12:12:40;96319.25;;;29.07;51.04
64610;BME280;51019;46.090;6.350;2023-05-23T12:15:09;96325.34;;;29.44;48.85
64610;BME280;51019;46.090;6.350;2023-05-23T12:17:36;96340.53;;;30.37;48.32
64610;BME280;51019;46.090;6.350;2023-05-23T12:20:09;96338.09;;;30.30;46.42
64610;BME280;51019;46.090;6.350;2023-05-23T12:22:43;96315.09;;;29.72;46.87
64610;BME280;51019;46.090;6.350;2023-05-23T12:25:13;96326.69;;;28.79;50.20
64610;BME280;51019;46.090;6.350;2023-05-23T12:27:40;96332.91;;;28.38;52.01
64610;BME280;51019;46.090;6.350;2023-05-23T12:30:09;96330.06;;;27.59;51.38
64610;BME280;51019;46.090;6.350;2023-05-23T12:32:39;96324.25;;;27.45;51.98
64610;BME280;51019;46.090;6.350;2023-05-23T12:35:08;96324.84;;;27.74;51.95
64610;BME280;51019;46.090;6.350;2023-05-23T12:37:38;96325.84;;;27.41;53.47
64610;BME280;51019;46.090;6.350;2023-05-23T12:40:14;96319.84;;;26.90;55.62
64610;BME280;51019;46.090;6.350;2023-05-23T12:42:48;96321.91;;;26.61;55.12
64610;BME280;51019;46.090;6.350;2023-05-23T12:45:17;96314.03;;;26.21;54.79
64610;BME280;51019;46.090;6.350;2023-05-23T12:47:51;96317.75;;;26.20;54.15
64610;BME280;51019;46.090;6.350;2023-05-23T12:50:19;96298.25;;;26.25;55.27
64610;BME280;51019;46.090;6.350;2023-05-23T12:52:48;96301.25;;;26.12;56.37
64610;BME280;51019;46.090;6.350;2023-05-23T12:55:19;96310.56;;;26.04;55.93
64610;BME280;51019;46.090;6.350;2023-05-23T12:57:46;96302.75;;;26.02;55.86
64610;BME280;51019;46.090;6.350;2023-05-23T13:00:14;96301.28;;;25.95;57.28
64610;BME280;51019;46.090;6.350;2023-05-23T13:02:42;96298.06;;;25.48;56.51
64610;BME280;51019;46.090;6.350;2023-05-23T13:05:10;96310.72;;;25.52;55.98
64610;BME280;51019;46.090;6.350;2023-05-23T13:07:37;96326.63;;;26.21;58.26